sensor_id;sensor_type;location;lat;lon;timestamp;P1;P2;P0
50589;PMS7003;36547;50.514;30.840;2023-07-02T00:00:04;12.90;12.20;8.90
50589;PMS7003;36547;50.514;30.840;2023-07-02T00:01:11;12.80;12.80;9.40
50589;PMS7003;36547;50.514;30.840;2023-07-02T00:02:14;13.40;13.40;10.90
50589;PMS7003;36547;50.514;30.840;2023-07-02T00:03:17;14.40;13.50;10.60
50589;PMS7003;36547;50.514;30.840;2023-07-02T00:04:20;14.00;12.90;9.90
50589;PMS7003;36547;50.514;30.840;2023-07-02T00:05:23;14.50;13.50;11.10
50589;PMS7003;36547;50.514;30.840;2023-07-02T00:06:25;13.00;9.30;6.60
50589;PMS7003;36547;50.514;30.840;2023-07-02T00:07:28;13.60;13.60;11.20
50589;PMS7003;36547;50.514;30.840;2023-07-02T00:08:31;13.30;13.30;11.00
50589;PMS7003;36547;50.514;30.840;2023-07-02T00:09:33;12.60;12.60;10.50
50589;PMS7003;36547;50.514;30.840;2023-07-02T00:10:36;11.60;11.20;9.40
50589;PMS7003;36547;50.514;30.840;2023-07-02T00:11:38;15.00;14.20;11.10
50589;PMS7003;36547;50.514;30.840;2023-07-02T00:12:43;14.20;13.20;10.00
50589;PMS7003;36547;50.514;30.840;2023-07-02T00:13:46;14.00;14.00;10.80
50589;PMS7003;36547;50.514;30.840;2023-07-02T00:14:48;15.30;14.40;10.70
50589;PMS7003;36547;50.514;30.840;2023-07-02T00:15:51;14.45;13.91;11.73
50589;PMS7003;36547;50.514;30.840;2023-07-02T00:16:53;13.40;13.40;11.10
50589;PMS7003;36547;50.514;30.840;2023-07-02T00:17:56;13.80;12.70;11.40
50589;PMS7003;36547;50.514;30.840;2023-07-02T00:18:58;11.60;11.60;9.30
50589;PMS7003;36547;50.514;30.840;2023-07-02T00:20:00;14.50;13.40;10.20
50589;PMS7003;36547;50.514;30.840;2023-07-02T00:21:05;14.55;13.64;11.00
50589;PMS7003;36547;50.514;30.840;2023-07-02T00:23:17;14.30;13.80;11.30
50589;PMS7003;36547;50.514;30.840;2023-07-02T00:24:20;12.18;11.91;10.09
50589;PMS7003;36547;50.514;30.840;2023-07-02T00:25:23;13.00;13.00;10.50
50589;PMS7003;36547;50.514;30.840;2023-07-02T00:26:26;12.30;12.20;10.60
50589;PMS7003;36547;50.514;30.840;2023-07-02T00:27:29;12.50;11.70;9.60
50589;PMS7003;36547;50.514;30.840;2023-07-02T00:28:32;14.60;13.90;10.80
50589;PMS7003;36547;50.514;30.840;2023-07-02T00:29:35;13.80;13.80;10.70
50589;PMS7003;36547;50.514;30.840;2023-07-02T00:30:37;13.30;13.30;10.70
50589;PMS7003;36547;50.514;30.840;2023-07-02T00:31:40;15.50;15.50;12.40
50589;PMS7003;36547;50.514;30.840;2023-07-02T00:32:42;12.90;12.70;9.50
50589;PMS7003;36547;50.514;30.840;2023-07-02T00:33:45;13.90;13.40;9.80
50589;PMS7003;36547;50.514;30.840;2023-07-02T00:34:48;14.40;14.40;11.70
50589;PMS7003;36547;50.514;30.840;2023-07-02T00:35:51;11.90;11.90;9.90
50589;PMS7003;36547;50.514;30.840;2023-07-02T00:36:53;13.90;13.60;11.50
50589;PMS7003;36547;50.514;30.840;2023-07-02T00:37:55;13.00;12.50;10.20
50589;PMS7003;36547;50.514;30.840;2023-07-02T00:38:58;12.30;12.30;10.40
50589;PMS7003;36547;50.514;30.840;2023-07-02T00:40:01;12.27;11.64;10.18
50589;PMS7003;36547;50.514;30.840;2023-07-02T00:41:03;15.70;14.90;11.50
50589;PMS7003;36547;50.514;30.840;2023-07-02T00:42:05;13.10;13.10;11.10
50589;PMS7003;36547;50.514;30.840;2023-07-02T00:43:08;13.18;13.00;11.18
50589;PMS7003;36547;50.514;30.840;2023-07-02T00:44:11;12.50;12.20;10.10
50589;PMS7003;36547;50.514;30.840;2023-07-02T00:45:13;13.80;13.00;9.60
50589;PMS7003;36547;50.514;30.840;2023-07-02T00:46:16;13.10;12.10;9.40
50589;PMS7003;36547;50.514;30.840;2023-07-02T00:47:21;15.50;13.70;10.60
50589;PMS7003;36547;50.514;30.840;2023-07-02T00:48:24;12.64;12.64;9.73
50589;PMS7003;36547;50.514;30.840;2023-07-02T00:49:26;15.30;13.50;11.60
50589;PMS7003;36547;50.514;30.840;2023-07-02T00:50:29;13.50;13.50;10.00
50589;PMS7003;36547;50.514;30.840;2023-07-02T00:51:31;12.70;12.70;11.30
50589;PMS7003;36547;50.514;30.840;2023-07-02T00:52:34;11.70;11.70;9.90
50589;PMS7003;36547;50.514;30.840;2023-07-02T00:53:36;14.50;14.20;11.60
50589;PMS7003;36547;50.514;30.840;2023-07-02T00:54:39;12.55;12.55;11.36
50589;PMS7003;36547;50.514;30.840;2023-07-02T00:55:42;15.20;14.80;11.70
50589;PMS7003;36547;50.514;30.840;2023-07-02T00:56:44;13.70;12.80;10.00
50589;PMS7003;36547;50.514;30.840;2023-07-02T00:57:46;10.90;10.20;8.60
50589;PMS7003;36547;50.514;30.840;2023-07-02T00:58:49;12.40;12.40;9.30
50589;PMS7003;36547;50.514;30.840;2023-07-02T00:59:53;12.00;12.00;10.00
50589;PMS7003;36547;50.514;30.840;2023-07-02T01:00:56;11.50;11.50;10.20
50589;PMS7003;36547;50.514;30.840;2023-07-02T01:01:58;13.10;12.20;10.10
50589;PMS7003;36547;50.514;30.840;2023-07-02T01:03:01;12.80;12.60;10.00
50589;PMS7003;36547;50.514;30.840;2023-07-02T01:04:06;13.60;11.70;10.30
50589;PMS7003;36547;50.514;30.840;2023-07-02T01:05:08;12.90;12.90;10.60
50589;PMS7003;36547;50.514;30.840;2023-07-02T01:06:12;12.40;11.40;9.20
50589;PMS7003;36547;50.514;30.840;2023-07-02T01:07:14;13.30;12.60;10.50
50589;PMS7003;36547;50.514;30.840;2023-07-02T01:08:17;12.00;12.00;10.80
50589;PMS7003;36547;50.514;30.840;2023-07-02T01:09:19;13.80;13.20;10.40
50589;PMS7003;36547;50.514;30.840;2023-07-02T01:10:22;15.50;15.20;12.40
50589;PMS7003;36547;50.514;30.840;2023-07-02T01:12:36;14.90;14.10;12.00
50589;PMS7003;36547;50.514;30.840;2023-07-02T01:13:39;14.91;14.18;12.00
50589;PMS7003;36547;50.514;30.840;2023-07-02T01:14:42;16.20;15.50;12.90
50589;PMS7003;36547;50.514;30.840;2023-07-02T01:15:47;13.50;13.50;11.20
50589;PMS7003;36547;50.514;30.840;2023-07-02T01:16:51;16.40;15.30;11.40
50589;PMS7003;36547;50.514;30.840;2023-07-02T01:17:55;14.50;13.20;10.90
50589;PMS7003;36547;50.514;30.840;2023-07-02T01:18:59;13.90;12.90;10.40
50589;PMS7003;36547;50.514;30.840;2023-07-02T01:20:04;15.40;14.00;11.30
50589;PMS7003;36547;50.514;30.840;2023-07-02T01:21:08;12.40;12.40;10.30
50589;PMS7003;36547;50.514;30.840;2023-07-02T01:22:11;14.40;13.10;10.50
50589;PMS7003;36547;50.514;30.840;2023-07-02T01:23:14;13.50;13.50;10.40
50589;PMS7003;36547;50.514;30.840;2023-07-02T01:24:18;14.60;14.60;11.10
50589;PMS7003;36547;50.514;30.840;2023-07-02T01:25:21;11.60;11.40;9.70
50589;PMS7003;36547;50.514;30.840;2023-07-02T01:26:24;13.20;11.80;9.70
50589;PMS7003;36547;50.514;30.840;2023-07-02T01:27:28;12.50;12.50;9.50
50589;PMS7003;36547;50.514;30.840;2023-07-02T01:28:35;14.00;13.00;10.70
50589;PMS7003;36547;50.514;30.840;2023-07-02T01:29:38;17.10;15.20;11.00
50589;PMS7003;36547;50.514;30.840;2023-07-02T01:30:40;14.80;13.90;11.30
50589;PMS7003;36547;50.514;30.840;2023-07-02T01:31:45;14.30;13.70;12.20
50589;PMS7003;36547;50.514;30.840;2023-07-02T01:32:48;13.80;13.20;9.90
50589;PMS7003;36547;50.514;30.840;2023-07-02T01:33:52;16.20;14.60;11.50
50589;PMS7003;36547;50.514;30.840;2023-07-02T01:34:54;17.10;16.90;12.30
50589;PMS7003;36547;50.514;30.840;2023-07-02T01:35:56;15.00;13.30;12.10
50589;PMS7003;36547;50.514;30.840;2023-07-02T01:36:59;15.18;14.91;12.00
50589;PMS7003;36547;50.514;30.840;2023-07-02T01:38:02;13.30;12.30;10.50
50589;PMS7003;36547;50.514;30.840;2023-07-02T01:39:05;14.50;13.60;11.40
50589;PMS7003;36547;50.514;30.840;2023-07-02T01:40:10;15.70;13.70;11.00
50589;PMS7003;36547;50.514;30.840;2023-07-02T01:41:12;11.70;11.20;9.00
50589;PMS7003;36547;50.514;30.840;2023-07-02T01:42:15;13.00;13.00;10.70
50589;PMS7003;36547;50.514;30.840;2023-07-02T01:43:20;12.50;11.70;9.90
50589;PMS7003;36547;50.514;30.840;2023-07-02T01:44:23;14.30;12.50;9.90
50589;PMS7003;36547;50.514;30.840;2023-07-02T01:45:25;11.60;11.60;9.10
50589;PMS7003;36547;50.514;30.840;2023-07-02T01:46:29;12.80;12.20;9.90
50589;PMS7003;36547;50.514;30.840;2023-07-02T01:47:32;15.20;14.00;10.20
50589;PMS7003;36547;50.514;30.840;2023-07-02T01:48:34;13.00;12.00;9.18
50589;PMS7003;36547;50.514;30.840;2023-07-02T01:49:37;13.70;13.30;10.40
50589;PMS7003;36547;50.514;30.840;2023-07-02T01:50:39;14.00;14.00;11.40
50589;PMS7003;36547;50.514;30.840;2023-07-02T01:51:51;12.50;12.50;9.40
50589;PMS7003;36547;50.514;30.840;2023-07-02T01:52:54;12.90;11.60;8.90
50589;PMS7003;36547;50.514;30.840;2023-07-02T01:53:56;14.00;13.00;10.10
50589;PMS7003;36547;50.514;30.840;2023-07-02T01:55:00;12.90;12.40;9.80
50589;PMS7003;36547;50.514;30.840;2023-07-02T01:56:03;11.60;11.30;9.40
50589;PMS7003;36547;50.514;30.840;2023-07-02T01:57:05;15.20;13.80;11.10
50589;PMS7003;36547;50.514;30.840;2023-07-02T01:58:08;13.91;12.45;9.27
50589;PMS7003;36547;50.514;30.840;2023-07-02T01:59:12;14.80;12.40;10.00
50589;PMS7003;36547;50.514;30.840;2023-07-02T02:00:15;14.40;12.80;10.60
50589;PMS7003;36547;50.514;30.840;2023-07-02T02:01:17;13.30;12.50;9.90
50589;PMS7003;36547;50.514;30.840;2023-07-02T02:02:20;13.60;12.90;10.30
50589;PMS7003;36547;50.514;30.840;2023-07-02T02:03:22;14.60;13.90;10.80
50589;PMS7003;36547;50.514;30.840;2023-07-02T02:04:25;15.20;12.10;9.60
50589;PMS7003;36547;50.514;30.840;2023-07-02T02:05:27;15.30;14.30;12.10
50589;PMS7003;36547;50.514;30.840;2023-07-02T02:06:30;15.50;13.10;10.60
50589;PMS7003;36547;50.514;30.840;2023-07-02T02:07:33;14.00;14.00;10.55
50589;PMS7003;36547;50.514;30.840;2023-07-02T02:08:35;15.30;14.50;12.00
50589;PMS7003;36547;50.514;30.840;2023-07-02T02:09:38;14.73;14.09;11.00
50589;PMS7003;36547;50.514;30.840;2023-07-02T02:10:40;12.90;12.10;10.10
50589;PMS7003;36547;50.514;30.840;2023-07-02T02:11:44;16.30;15.40;11.20
50589;PMS7003;36547;50.514;30.840;2023-07-02T02:12:47;15.60;15.60;12.10
50589;PMS7003;36547;50.514;30.840;2023-07-02T02:13:50;12.60;11.20;9.70
50589;PMS7003;36547;50.514;30.840;2023-07-02T02:14:53;13.10;13.10;10.80
50589;PMS7003;36547;50.514;30.840;2023-07-02T02:15:55;14.90;14.30;10.40
50589;PMS7003;36547;50.514;30.840;2023-07-02T02:16:58;15.73;15.18;11.45
50589;PMS7003;36547;50.514;30.840;2023-07-02T02:18:00;12.40;11.40;8.50
50589;PMS7003;36547;50.514;30.840;2023-07-02T02:19:03;14.00;14.00;10.40
50589;PMS7003;36547;50.514;30.840;2023-07-02T02:20:08;15.30;15.30;12.30
50589;PMS7003;36547;50.514;30.840;2023-07-02T02:21:11;15.00;13.90;11.20
50589;PMS7003;36547;50.514;30.840;2023-07-02T02:22:14;15.40;15.40;11.80
50589;PMS7003;36547;50.514;30.840;2023-07-02T02:23:16;14.60;14.60;12.70
50589;PMS7003;36547;50.514;30.840;2023-07-02T02:24:18;15.40;15.40;11.50
50589;PMS7003;36547;50.514;30.840;2023-07-02T02:25:21;13.70;13.70;11.30
50589;PMS7003;36547;50.514;30.840;2023-07-02T02:26:23;18.30;18.20;13.00
50589;PMS7003;36547;50.514;30.840;2023-07-02T02:27:26;15.00;14.80;10.90
50589;PMS7003;36547;50.514;30.840;2023-07-02T02:28:28;14.60;14.60;11.70
50589;PMS7003;36547;50.514;30.840;2023-07-02T02:29:30;16.90;15.50;12.00
50589;PMS7003;36547;50.514;30.840;2023-07-02T02:30:33;14.10;14.10;10.40
50589;PMS7003;36547;50.514;30.840;2023-07-02T02:31:36;15.30;14.50;11.10
50589;PMS7003;36547;50.514;30.840;2023-07-02T02:32:39;14.30;13.60;10.70
50589;PMS7003;36547;50.514;30.840;2023-07-02T02:33:43;14.30;14.30;11.80
50589;PMS7003;36547;50.514;30.840;2023-07-02T02:34:46;4.45;3.27;1.64
50589;PMS7003;36547;50.514;30.840;2023-07-02T02:35:49;15.55;13.45;10.91
50589;PMS7003;36547;50.514;30.840;2023-07-02T02:36:53;15.00;13.90;11.20
50589;PMS7003;36547;50.514;30.840;2023-07-02T02:37:56;14.80;13.60;10.50
50589;PMS7003;36547;50.514;30.840;2023-07-02T02:38:58;14.40;13.70;10.60
50589;PMS7003;36547;50.514;30.840;2023-07-02T02:40:01;13.73;13.27;10.55
50589;PMS7003;36547;50.514;30.840;2023-07-02T02:41:04;13.50;13.50;10.80
50589;PMS7003;36547;50.514;30.840;2023-07-02T02:42:08;15.20;14.10;10.60
50589;PMS7003;36547;50.514;30.840;2023-07-02T02:43:12;15.30;14.50;11.00
50589;PMS7003;36547;50.514;30.840;2023-07-02T02:44:15;14.80;13.90;10.90
50589;PMS7003;36547;50.514;30.840;2023-07-02T02:45:17;17.20;15.20;11.80
50589;PMS7003;36547;50.514;30.840;2023-07-02T02:46:20;15.73;15.73;12.36
50589;PMS7003;36547;50.514;30.840;2023-07-02T02:47:23;14.50;14.20;10.00
50589;PMS7003;36547;50.514;30.840;2023-07-02T02:48:26;14.20;12.90;10.30
50589;PMS7003;36547;50.514;30.840;2023-07-02T02:49:28;14.70;14.70;11.10
50589;PMS7003;36547;50.514;30.840;2023-07-02T02:50:32;11.90;11.90;9.60
50589;PMS7003;36547;50.514;30.840;2023-07-02T02:51:34;13.50;13.50;10.00
50589;PMS7003;36547;50.514;30.840;2023-07-02T02:52:36;13.90;12.90;10.20
50589;PMS7003;36547;50.514;30.840;2023-07-02T02:53:38;13.40;12.40;9.90
50589;PMS7003;36547;50.514;30.840;2023-07-02T02:54:41;11.40;11.40;9.40
50589;PMS7003;36547;50.514;30.840;2023-07-02T02:55:43;15.64;14.18;11.55
50589;PMS7003;36547;50.514;30.840;2023-07-02T02:56:46;15.20;13.40;10.80
50589;PMS7003;36547;50.514;30.840;2023-07-02T02:57:49;14.45;13.36;10.91
50589;PMS7003;36547;50.514;30.840;2023-07-02T02:58:52;15.09;15.09;11.18
50589;PMS7003;36547;50.514;30.840;2023-07-02T02:59:54;13.90;13.90;10.70
50589;PMS7003;36547;50.514;30.840;2023-07-02T03:00:57;13.50;12.60;10.20
50589;PMS7003;36547;50.514;30.840;2023-07-02T03:01:59;14.50;13.10;11.00
50589;PMS7003;36547;50.514;30.840;2023-07-02T03:03:02;13.50;12.30;9.20
50589;PMS7003;36547;50.514;30.840;2023-07-02T03:04:04;13.70;12.60;10.10
50589;PMS7003;36547;50.514;30.840;2023-07-02T03:05:06;15.50;13.70;11.30
50589;PMS7003;36547;50.514;30.840;2023-07-02T03:06:10;14.90;13.50;10.10
50589;PMS7003;36547;50.514;30.840;2023-07-02T03:07:13;14.20;12.80;9.90
50589;PMS7003;36547;50.514;30.840;2023-07-02T03:08:15;12.90;12.10;9.80
50589;PMS7003;36547;50.514;30.840;2023-07-02T03:09:18;14.40;13.10;10.10
50589;PMS7003;36547;50.514;30.840;2023-07-02T03:10:21;12.64;12.64;10.36
50589;PMS7003;36547;50.514;30.840;2023-07-02T03:11:23;14.10;14.00;10.50
50589;PMS7003;36547;50.514;30.840;2023-07-02T03:12:26;14.40;14.20;11.10
50589;PMS7003;36547;50.514;30.840;2023-07-02T03:13:28;12.50;11.50;9.40
50589;PMS7003;36547;50.514;30.840;2023-07-02T03:14:31;12.50;12.50;10.10
50589;PMS7003;36547;50.514;30.840;2023-07-02T03:15:33;12.90;12.90;10.90
50589;PMS7003;36547;50.514;30.840;2023-07-02T03:16:36;14.60;13.10;10.60
50589;PMS7003;36547;50.514;30.840;2023-07-02T03:17:38;13.50;13.30;10.90
50589;PMS7003;36547;50.514;30.840;2023-07-02T03:18:41;11.50;11.50;9.70
50589;PMS7003;36547;50.514;30.840;2023-07-02T03:19:43;13.80;13.40;9.80
50589;PMS7003;36547;50.514;30.840;2023-07-02T03:20:45;12.50;12.50;9.60
50589;PMS7003;36547;50.514;30.840;2023-07-02T03:21:49;12.30;11.60;9.20
50589;PMS7003;36547;50.514;30.840;2023-07-02T03:22:51;11.90;11.70;10.10
50589;PMS7003;36547;50.514;30.840;2023-07-02T03:23:53;12.50;12.50;9.00
50589;PMS7003;36547;50.514;30.840;2023-07-02T03:24:55;13.60;13.00;10.40
50589;PMS7003;36547;50.514;30.840;2023-07-02T03:25:58;14.36;11.45;9.36
50589;PMS7003;36547;50.514;30.840;2023-07-02T03:27:00;12.60;11.30;8.70
50589;PMS7003;36547;50.514;30.840;2023-07-02T03:28:03;11.40;10.30;8.20
50589;PMS7003;36547;50.514;30.840;2023-07-02T03:29:06;12.30;10.80;9.10
50589;PMS7003;36547;50.514;30.840;2023-07-02T03:30:09;12.36;12.36;9.73
50589;PMS7003;36547;50.514;30.840;2023-07-02T03:31:12;11.50;11.50;9.50
50589;PMS7003;36547;50.514;30.840;2023-07-02T03:32:14;12.30;12.30;10.20
50589;PMS7003;36547;50.514;30.840;2023-07-02T03:33:16;11.80;10.90;9.10
50589;PMS7003;36547;50.514;30.840;2023-07-02T03:34:18;11.30;11.30;9.70
50589;PMS7003;36547;50.514;30.840;2023-07-02T03:35:21;11.91;11.91;10.27
50589;PMS7003;36547;50.514;30.840;2023-07-02T03:36:23;12.60;12.60;10.10
50589;PMS7003;36547;50.514;30.840;2023-07-02T03:37:26;12.80;11.80;9.20
50589;PMS7003;36547;50.514;30.840;2023-07-02T03:38:30;12.00;12.00;10.00
50589;PMS7003;36547;50.514;30.840;2023-07-02T03:39:32;14.50;12.20;9.90
50589;PMS7003;36547;50.514;30.840;2023-07-02T03:40:35;11.80;11.80;9.50
50589;PMS7003;36547;50.514;30.840;2023-07-02T03:41:37;14.60;13.30;9.80
50589;PMS7003;36547;50.514;30.840;2023-07-02T03:42:39;13.10;11.50;8.70
50589;PMS7003;36547;50.514;30.840;2023-07-02T03:43:43;11.40;11.40;10.00
50589;PMS7003;36547;50.514;30.840;2023-07-02T03:44:45;12.10;11.50;9.30
50589;PMS7003;36547;50.514;30.840;2023-07-02T03:45:47;12.80;11.30;9.20
50589;PMS7003;36547;50.514;30.840;2023-07-02T03:46:50;11.36;11.36;9.27
50589;PMS7003;36547;50.514;30.840;2023-07-02T03:47:53;13.70;11.90;8.80
50589;PMS7003;36547;50.514;30.840;2023-07-02T03:48:55;11.90;11.90;9.10
50589;PMS7003;36547;50.514;30.840;2023-07-02T03:49:57;12.40;12.40;10.40
50589;PMS7003;36547;50.514;30.840;2023-07-02T03:51:01;12.45;12.45;9.55
50589;PMS7003;36547;50.514;30.840;2023-07-02T03:52:03;13.90;13.10;9.40
50589;PMS7003;36547;50.514;30.840;2023-07-02T03:53:06;13.10;11.60;9.50
50589;PMS7003;36547;50.514;30.840;2023-07-02T03:54:11;11.30;11.30;9.70
50589;PMS7003;36547;50.514;30.840;2023-07-02T03:55:17;13.30;12.90;10.20
50589;PMS7003;36547;50.514;30.840;2023-07-02T03:56:19;12.30;11.20;8.90
50589;PMS7003;36547;50.514;30.840;2023-07-02T03:57:21;14.30;13.30;9.40
50589;PMS7003;36547;50.514;30.840;2023-07-02T03:58:24;12.30;11.60;8.70
50589;PMS7003;36547;50.514;30.840;2023-07-02T03:59:28;13.40;11.40;9.00
50589;PMS7003;36547;50.514;30.840;2023-07-02T04:00:34;13.00;13.00;10.20
50589;PMS7003;36547;50.514;30.840;2023-07-02T04:01:36;14.00;12.20;9.70
50589;PMS7003;36547;50.514;30.840;2023-07-02T04:02:39;12.30;11.60;10.00
50589;PMS7003;36547;50.514;30.840;2023-07-02T04:03:48;13.10;12.30;9.30
50589;PMS7003;36547;50.514;30.840;2023-07-02T04:04:51;14.80;12.60;9.90
50589;PMS7003;36547;50.514;30.840;2023-07-02T04:05:56;11.60;11.60;9.20
50589;PMS7003;36547;50.514;30.840;2023-07-02T04:06:59;12.10;11.80;9.60
50589;PMS7003;36547;50.514;30.840;2023-07-02T04:08:01;11.20;11.00;8.30
50589;PMS7003;36547;50.514;30.840;2023-07-02T04:09:03;13.50;12.60;10.40
50589;PMS7003;36547;50.514;30.840;2023-07-02T04:10:06;12.10;12.10;10.00
50589;PMS7003;36547;50.514;30.840;2023-07-02T04:11:09;11.27;11.27;9.45
50589;PMS7003;36547;50.514;30.840;2023-07-02T04:12:12;12.70;12.10;8.90
50589;PMS7003;36547;50.514;30.840;2023-07-02T04:13:16;12.80;11.60;9.70
50589;PMS7003;36547;50.514;30.840;2023-07-02T04:14:23;15.80;14.40;10.60
50589;PMS7003;36547;50.514;30.840;2023-07-02T04:16:39;14.60;14.00;11.00
50589;PMS7003;36547;50.514;30.840;2023-07-02T04:17:42;13.20;12.40;9.70
50589;PMS7003;36547;50.514;30.840;2023-07-02T04:20:12;15.80;14.50;11.50
50589;PMS7003;36547;50.514;30.840;2023-07-02T04:21:14;13.50;13.30;11.60
50589;PMS7003;36547;50.514;30.840;2023-07-02T04:22:21;13.50;12.50;9.70
50589;PMS7003;36547;50.514;30.840;2023-07-02T04:23:24;14.20;13.60;11.10
50589;PMS7003;36547;50.514;30.840;2023-07-02T04:24:28;13.70;13.50;10.60
50589;PMS7003;36547;50.514;30.840;2023-07-02T04:25:32;11.30;11.30;9.30
50589;PMS7003;36547;50.514;30.840;2023-07-02T04:26:45;14.90;14.90;11.50
50589;PMS7003;36547;50.514;30.840;2023-07-02T04:27:49;13.50;13.20;10.90
50589;PMS7003;36547;50.514;30.840;2023-07-02T04:28:53;12.10;12.10;9.90
50589;PMS7003;36547;50.514;30.840;2023-07-02T04:29:56;12.50;12.50;9.90
50589;PMS7003;36547;50.514;30.840;2023-07-02T04:30:58;11.70;11.70;9.00
50589;PMS7003;36547;50.514;30.840;2023-07-02T04:32:01;11.91;11.27;9.27
50589;PMS7003;36547;50.514;30.840;2023-07-02T04:33:04;11.60;11.60;9.20
50589;PMS7003;36547;50.514;30.840;2023-07-02T04:34:06;13.00;11.30;9.80
50589;PMS7003;36547;50.514;30.840;2023-07-02T04:35:09;12.70;11.90;9.80
50589;PMS7003;36547;50.514;30.840;2023-07-02T04:36:12;12.90;12.90;10.30
50589;PMS7003;36547;50.514;30.840;2023-07-02T04:37:14;12.10;12.10;9.90
50589;PMS7003;36547;50.514;30.840;2023-07-02T04:38:16;13.40;13.40;10.10
50589;PMS7003;36547;50.514;30.840;2023-07-02T04:39:19;13.91;13.00;10.36
50589;PMS7003;36547;50.514;30.840;2023-07-02T04:40:22;12.30;12.30;9.50
50589;PMS7003;36547;50.514;30.840;2023-07-02T04:41:25;14.20;13.90;10.50
50589;PMS7003;36547;50.514;30.840;2023-07-02T04:42:28;14.20;13.50;10.20
50589;PMS7003;36547;50.514;30.840;2023-07-02T04:43:31;13.10;13.10;10.50
50589;PMS7003;36547;50.514;30.840;2023-07-02T04:44:33;15.30;13.80;11.40
50589;PMS7003;36547;50.514;30.840;2023-07-02T04:45:36;13.20;13.20;11.20
50589;PMS7003;36547;50.514;30.840;2023-07-02T04:46:38;14.40;13.30;10.70
50589;PMS7003;36547;50.514;30.840;2023-07-02T04:47:42;16.70;15.70;11.80
50589;PMS7003;36547;50.514;30.840;2023-07-02T04:48:45;15.60;15.60;12.20
50589;PMS7003;36547;50.514;30.840;2023-07-02T04:49:47;16.80;16.80;12.20
50589;PMS7003;36547;50.514;30.840;2023-07-02T04:50:49;17.50;17.50;13.10
50589;PMS7003;36547;50.514;30.840;2023-07-02T04:51:53;17.40;16.60;11.80
50589;PMS7003;36547;50.514;30.840;2023-07-02T04:52:55;18.36;18.36;13.82
50589;PMS7003;36547;50.514;30.840;2023-07-02T04:53:58;15.90;15.90;12.50
50589;PMS7003;36547;50.514;30.840;2023-07-02T04:55:01;18.20;17.40;14.20
50589;PMS7003;36547;50.514;30.840;2023-07-02T04:56:05;18.20;17.30;12.60
50589;PMS7003;36547;50.514;30.840;2023-07-02T04:57:09;17.80;17.50;12.70
50589;PMS7003;36547;50.514;30.840;2023-07-02T04:58:12;18.80;17.60;13.50
50589;PMS7003;36547;50.514;30.840;2023-07-02T04:59:14;14.80;14.30;11.20
50589;PMS7003;36547;50.514;30.840;2023-07-02T05:00:17;15.00;15.00;11.00
50589;PMS7003;36547;50.514;30.840;2023-07-02T05:01:19;17.20;15.50;12.30
50589;PMS7003;36547;50.514;30.840;2023-07-02T05:02:22;15.20;15.20;12.50
50589;PMS7003;36547;50.514;30.840;2023-07-02T05:03:26;15.70;14.90;11.10
50589;PMS7003;36547;50.514;30.840;2023-07-02T05:04:28;15.30;15.30;11.90
50589;PMS7003;36547;50.514;30.840;2023-07-02T05:05:30;13.80;13.20;9.90
50589;PMS7003;36547;50.514;30.840;2023-07-02T05:06:33;16.70;15.70;11.90
50589;PMS7003;36547;50.514;30.840;2023-07-02T05:07:35;14.70;13.90;10.80
50589;PMS7003;36547;50.514;30.840;2023-07-02T05:08:37;14.60;13.80;10.20
50589;PMS7003;36547;50.514;30.840;2023-07-02T05:09:41;12.70;12.70;10.40
50589;PMS7003;36547;50.514;30.840;2023-07-02T05:10:44;13.10;12.70;10.80
50589;PMS7003;36547;50.514;30.840;2023-07-02T05:11:47;15.90;14.70;11.70
50589;PMS7003;36547;50.514;30.840;2023-07-02T05:12:50;14.30;13.50;10.50
50589;PMS7003;36547;50.514;30.840;2023-07-02T05:13:53;13.20;13.20;11.60
50589;PMS7003;36547;50.514;30.840;2023-07-02T05:14:56;14.70;13.90;11.20
50589;PMS7003;36547;50.514;30.840;2023-07-02T05:15:58;15.30;15.30;12.70
50589;PMS7003;36547;50.514;30.840;2023-07-02T05:17:00;15.80;15.30;13.30
50589;PMS7003;36547;50.514;30.840;2023-07-02T05:18:03;17.80;16.70;13.10
50589;PMS7003;36547;50.514;30.840;2023-07-02T05:19:05;19.20;16.50;13.70
50589;PMS7003;36547;50.514;30.840;2023-07-02T05:20:08;18.30;17.40;14.50
50589;PMS7003;36547;50.514;30.840;2023-07-02T05:21:11;18.00;16.70;14.00
50589;PMS7003;36547;50.514;30.840;2023-07-02T05:22:13;17.30;16.50;13.50
50589;PMS7003;36547;50.514;30.840;2023-07-02T05:23:21;19.30;18.50;15.80
50589;PMS7003;36547;50.514;30.840;2023-07-02T05:24:23;16.40;16.40;14.30
50589;PMS7003;36547;50.514;30.840;2023-07-02T05:25:26;19.80;18.00;15.70
50589;PMS7003;36547;50.514;30.840;2023-07-02T05:26:28;15.20;15.20;12.30
50589;PMS7003;36547;50.514;30.840;2023-07-02T05:27:30;17.40;17.40;15.00
50589;PMS7003;36547;50.514;30.840;2023-07-02T05:28:33;16.10;15.50;13.20
50589;PMS7003;36547;50.514;30.840;2023-07-02T05:29:35;18.60;18.60;14.50
50589;PMS7003;36547;50.514;30.840;2023-07-02T05:30:40;20.20;19.20;15.10
50589;PMS7003;36547;50.514;30.840;2023-07-02T05:31:45;20.30;20.20;14.80
50589;PMS7003;36547;50.514;30.840;2023-07-02T05:32:49;19.20;18.00;15.30
50589;PMS7003;36547;50.514;30.840;2023-07-02T05:33:51;19.70;18.70;15.90
50589;PMS7003;36547;50.514;30.840;2023-07-02T05:34:55;17.00;16.40;14.00
50589;PMS7003;36547;50.514;30.840;2023-07-02T05:35:57;18.40;17.10;14.50
50589;PMS7003;36547;50.514;30.840;2023-07-02T05:36:59;19.60;17.80;15.00
50589;PMS7003;36547;50.514;30.840;2023-07-02T05:38:02;17.80;17.10;13.30
50589;PMS7003;36547;50.514;30.840;2023-07-02T05:39:04;19.10;18.90;15.20
50589;PMS7003;36547;50.514;30.840;2023-07-02T05:40:08;22.00;18.90;15.80
50589;PMS7003;36547;50.514;30.840;2023-07-02T05:41:17;19.10;18.50;14.00
50589;PMS7003;36547;50.514;30.840;2023-07-02T05:42:30;21.80;20.50;15.20
50589;PMS7003;36547;50.514;30.840;2023-07-02T05:43:32;20.60;19.70;15.00
50589;PMS7003;36547;50.514;30.840;2023-07-02T05:44:35;19.00;17.00;14.73
50589;PMS7003;36547;50.514;30.840;2023-07-02T05:45:37;19.20;18.30;15.30
50589;PMS7003;36547;50.514;30.840;2023-07-02T05:46:39;18.50;18.20;14.50
50589;PMS7003;36547;50.514;30.840;2023-07-02T05:47:42;18.40;16.40;13.20
50589;PMS7003;36547;50.514;30.840;2023-07-02T05:48:44;15.20;14.30;11.00
50589;PMS7003;36547;50.514;30.840;2023-07-02T05:49:46;15.20;15.20;12.80
50589;PMS7003;36547;50.514;30.840;2023-07-02T05:50:49;14.73;14.09;12.18
50589;PMS7003;36547;50.514;30.840;2023-07-02T05:51:52;16.90;16.30;12.40
50589;PMS7003;36547;50.514;30.840;2023-07-02T05:52:55;14.30;14.30;10.80
50589;PMS7003;36547;50.514;30.840;2023-07-02T05:53:57;14.50;13.90;12.20